createdAt,value
2023-05-12T00:00:35.873Z,8.65
2023-05-12T00:10:35.844Z,8.61
2023-05-12T00:20:35.825Z,8.6
2023-05-12T00:30:35.831Z,8.62
2023-05-12T00:40:35.819Z,8.61
2023-05-12T00:50:35.841Z,8.62
2023-05-12T01:00:35.807Z,8.64
2023-05-12T01:10:35.814Z,8.6
2023-05-12T01:20:35.825Z,8.61
2023-05-12T01:30:35.790Z,8.64
2023-05-12T01:40:35.824Z,8.61
2023-05-12T01:50:35.819Z,8.61
2023-05-12T02:00:35.818Z,8.63
2023-05-12T02:10:35.788Z,8.58
2023-05-12T02:20:35.789Z,8.57
2023-05-12T02:30:35.794Z,8.55
2023-05-12T02:40:35.800Z,8.57
2023-05-12T02:50:35.791Z,8.59
2023-05-12T03:00:35.812Z,8.57
2023-05-12T03:10:35.862Z,8.53
2023-05-12T03:20:35.780Z,8.51
2023-05-12T03:30:35.768Z,8.5
2023-05-12T03:40:35.747Z,8.46
2023-05-12T03:50:35.751Z,8.51
2023-05-12T04:00:35.760Z,8.54
2023-05-12T04:10:35.763Z,8.55
2023-05-12T04:20:35.753Z,8.55
2023-05-12T04:30:35.744Z,8.6
2023-05-12T04:40:35.774Z,8.63
2023-05-12T04:50:35.752Z,8.66
2023-05-12T05:00:35.717Z,8.75
2023-05-12T05:10:35.756Z,8.82
2023-05-12T05:20:35.839Z,8.88
2023-05-12T05:30:35.738Z,8.96
2023-05-12T05:40:45.292Z,9.09
2023-05-12T05:50:35.708Z,9.18
2023-05-12T06:00:35.716Z,9.22
2023-05-12T06:10:35.720Z,9.24
2023-05-12T06:20:35.728Z,9.15
2023-05-12T06:30:35.679Z,9.29
2023-05-12T06:40:43.882Z,9.38
2023-05-12T06:50:35.676Z,9.52
2023-05-12T07:00:35.784Z,9.66
2023-05-12T07:10:35.669Z,9.86
2023-05-12T07:20:35.675Z,10.04
2023-05-12T07:30:35.700Z,10.34
2023-05-12T07:40:35.667Z,10.48
2023-05-12T07:50:35.659Z,10.72
2023-05-12T08:00:35.745Z,11.23
2023-05-12T08:10:35.661Z,11.32
2023-05-12T08:20:35.690Z,11.53
2023-05-12T08:30:35.683Z,11.67
2023-05-12T08:40:35.632Z,11.79
2023-05-12T08:50:35.628Z,12.05
2023-05-12T09:00:35.664Z,12.38
2023-05-12T09:10:35.928Z,12.45
2023-05-12T09:20:35.643Z,12.64
2023-05-12T09:30:35.632Z,12.87
2023-05-12T09:40:35.606Z,13.46
2023-05-12T09:50:44.460Z,13.82
2023-05-12T10:00:52.311Z,14.02
2023-05-12T10:10:35.557Z,14.24
2023-05-12T10:20:35.584Z,14.34
2023-05-12T10:30:35.534Z,14.93
2023-05-12T10:40:35.526Z,15.7
2023-05-12T10:50:35.532Z,15.88
2023-05-12T11:00:36.146Z,15.17
2023-05-12T11:10:35.778Z,15.46
2023-05-12T11:20:35.705Z,15.25
2023-05-12T11:30:35.760Z,15.15
2023-05-12T11:40:35.592Z,15.25
2023-05-12T11:50:36.163Z,15.18
2023-05-12T12:00:35.492Z,15.02
2023-05-12T12:10:35.484Z,14.86
2023-05-12T12:21:05.723Z,14.66
2023-05-12T12:30:36.942Z,14.41
2023-05-12T12:40:35.481Z,14.47
2023-05-12T12:50:35.458Z,14.58
2023-05-12T13:00:35.465Z,14.41
2023-05-12T13:10:35.447Z,14.08
2023-05-12T13:20:35.463Z,14.09
2023-05-12T13:30:35.587Z,14
2023-05-12T13:40:35.396Z,14.16
2023-05-12T13:50:35.435Z,14.26
2023-05-12T14:00:35.417Z,14.43
2023-05-12T14:10:35.438Z,14.34
2023-05-12T14:30:35.476Z,14.47
2023-05-12T14:40:35.375Z,14.41
2023-05-12T14:50:35.374Z,14.24
2023-05-12T15:10:35.360Z,14
2023-05-12T15:20:35.361Z,14
2023-05-12T15:30:35.316Z,14
2023-05-12T15:40:35.318Z,13.87
2023-05-12T15:50:35.324Z,13.74
2023-05-12T16:00:35.353Z,13.67
2023-05-12T16:10:35.328Z,13.5
2023-05-12T16:20:35.305Z,13.48
2023-05-12T16:30:35.307Z,13.43
2023-05-12T16:40:35.305Z,13.48
2023-05-12T16:50:35.275Z,13.38
2023-05-12T17:00:35.270Z,13.28
2023-05-12T17:10:35.266Z,13.13
2023-05-12T17:20:35.250Z,12.95
2023-05-12T17:30:35.257Z,12.86
2023-05-12T17:40:35.290Z,12.73
2023-05-12T17:50:35.199Z,12.59
2023-05-12T18:00:35.297Z,12.43
2023-05-12T18:10:35.217Z,12.2
2023-05-12T18:20:35.375Z,12.01
2023-05-12T18:30:35.374Z,11.84
2023-05-12T18:40:35.200Z,11.67
2023-05-12T18:50:35.185Z,11.61
2023-05-12T19:00:35.200Z,11.55
2023-05-12T19:10:36.689Z,11.33
2023-05-12T19:20:35.171Z,11.17
2023-05-12T19:30:35.170Z,10.98
2023-05-12T19:40:35.182Z,10.83
2023-05-12T19:50:35.145Z,10.72
2023-05-12T20:00:36.000Z,10.61
2023-05-12T20:10:35.174Z,10.58
2023-05-12T20:20:35.178Z,10.54
2023-05-12T20:30:35.169Z,10.56
2023-05-12T20:40:35.133Z,10.5
2023-05-12T20:50:35.154Z,10.43
2023-05-12T21:00:35.143Z,10.45
2023-05-12T21:10:35.162Z,10.41
2023-05-12T21:20:35.124Z,10.35
2023-05-12T21:30:35.154Z,10.3
2023-05-12T21:40:35.132Z,10.24
2023-05-12T21:50:35.109Z,10.22
2023-05-12T22:00:35.093Z,10.17
2023-05-12T22:10:35.116Z,10.17
2023-05-12T22:20:35.095Z,10.18
2023-05-12T22:30:35.158Z,10.18
2023-05-12T22:40:35.091Z,10.18
2023-05-12T22:50:35.110Z,10.18
2023-05-12T23:00:35.121Z,10.15
2023-05-12T23:10:35.079Z,10.16
2023-05-12T23:20:35.105Z,10.13
2023-05-12T23:30:35.096Z,10.14
2023-05-12T23:40:35.075Z,10.17
2023-05-12T23:50:35.093Z,10.12
